Time;durP1;ratioP1;P1;durP2;ratioP2;P2;SDS_P1;SDS_P2;PMS_P1;PMS_P2;Temp;Humidity;BMP_temperature;BMP_pressure;BME280_temperature;BME280_humidity;BME280_pressure;Samples;Min_cycle;Max_cycle;Signal;HPM_P1;HPM_P2
2022/01/15 00:55:14;;;;;;;10.93;8.63;;;;;;;;;;12942513;23;20012;-87
2022/01/15 01:23:27;;;;;;;15.98;11.48;;;;;;;;;;12686721;23;20014;-86
2022/01/15 08:02:38;;;;;;;3.92;3.03;;;;;;;;;;12939783;22;20012;-87
2022/01/15 08:07:43;;;;;;;5.32;3.80;;;;;;;;;;12947607;23;20016;-81
2022/01/15 08:12:49;;;;;;;5.75;4.53;;;;;;;;;;12923975;22;20066;-83
2022/01/15 08:17:50;;;;;;;4.85;3.78;;;;;;;;;;12918699;23;20089;-83
2022/01/15 08:22:51;;;;;;;;;;;;;;;;;;12921978;23;20440;-84
2022/01/15 08:27:52;;;;;;;4.10;3.60;;;;;;;;;;12922883;23;19907;-83
2022/01/15 08:38:04;;;;;;;4.60;3.20;;;;;;;;;;12905710;22;20024;-82
2022/01/15 08:43:05;;;;;;;;;;;;;;;;;;12922516;22;20000;-82
2022/01/15 08:48:07;;;;;;;3.78;2.85;;;;;;;;;;12918076;23;19907;-82
2022/01/15 08:53:08;;;;;;;5.43;4.15;;;;;;;;;;12921317;22;20004;-83
2022/01/15 08:58:29;;;;;;;;;;;;;;;;;;12947673;23;20392;-82
2022/01/15 09:03:30;;;;;;;5.93;3.97;;;;;;;;;;12919155;23;19968;-82
2022/01/15 09:08:31;;;;;;;5.53;4.40;;;;;;;;;;12920049;23;20073;-83
2022/01/15 09:13:32;;;;;;;;;;;;;;;;;;12921612;23;20023;-83
2022/01/15 09:18:34;;;;;;;4.43;3.30;;;;;;;;;;12923047;23;19910;-83
2022/01/15 09:23:40;;;;;;;3.65;2.40;;;;;;;;;;12951436;22;20019;-82
2022/01/15 09:34:01;;;;;;;4.53;3.97;;;;;;;;;;12951673;22;20012;-82
2022/01/15 09:39:02;;;;;;;5.20;4.18;;;;;;;;;;12923258;23;20104;-82
2022/01/15 09:44:03;;;;;;;6.07;4.57;;;;;;;;;;12923290;23;20027;-84
2022/01/15 09:49:04;;;;;;;6.00;4.53;;;;;;;;;;12927487;23;20004;-83
2022/01/15 09:54:05;;;;;;;6.05;4.50;;;;;;;;;;12970161;22;19995;-84
2022/01/15 09:59:06;;;;;;;;;;;;;;;;;;12937663;23;20092;-84
2022/01/15 10:04:07;;;;;;;5.82;4.88;;;;;;;;;;12920804;23;19900;-84
2022/01/15 10:09:08;;;;;;;;;;;;;;;;;;12917963;23;20031;-83
2022/01/15 10:14:29;;;;;;;5.28;3.47;;;;;;;;;;12914484;23;20321;-83
2022/01/15 10:19:31;;;;;;;4.65;3.67;;;;;;;;;;12917646;23;20092;-82
2022/01/15 10:24:33;;;;;;;4.38;3.58;;;;;;;;;;12914450;23;20189;-86
2022/01/15 10:29:36;;;;;;;5.20;4.05;;;;;;;;;;12916274;23;20004;-83
2022/01/15 10:34:37;;;;;;;4.85;3.55;;;;;;;;;;12915382;23;20001;-83
2022/01/15 10:39:39;;;;;;;4.68;3.60;;;;;;;;;;12915923;23;20024;-84
2022/01/15 10:44:42;;;;;;;5.10;4.38;;;;;;;;;;12914484;23;20004;-83
2022/01/15 10:49:43;;;;;;;8.38;6.90;;;;;;;;;;12920474;23;20007;-83
2022/01/15 10:54:52;;;;;;;5.72;4.15;;;;;;;;;;12922812;23;20064;-83
2022/01/15 10:59:56;;;;;;;5.72;4.13;;;;;;;;;;12943759;22;20008;-84
2022/01/15 11:04:58;;;;;;;6.35;4.80;;;;;;;;;;12917304;23;20340;-82
2022/01/15 11:10:02;;;;;;;5.63;3.75;;;;;;;;;;12921275;23;20004;-84
2022/01/15 11:15:03;;;;;;;6.03;4.32;;;;;;;;;;12920322;23;20004;-84
2022/01/15 11:20:05;;;;;;;4.78;3.70;;;;;;;;;;12916110;23;20091;-81
2022/01/15 11:25:06;;;;;;;4.95;4.18;;;;;;;;;;12917791;23;20000;-84
2022/01/15 11:30:08;;;;;;;5.35;3.65;;;;;;;;;;12923854;23;20310;-84
2022/01/15 11:35:09;;;;;;;6.25;4.55;;;;;;;;;;12948052;22;20463;-84
2022/01/15 11:40:29;;;;;;;5.57;4.18;;;;;;;;;;12920278;23;20099;-83
2022/01/15 11:45:35;;;;;;;4.82;3.58;;;;;;;;;;12921219;23;20035;-84
2022/01/15 11:50:36;;;;;;;6.05;4.10;;;;;;;;;;12923460;22;20128;-83
2022/01/15 11:55:39;;;;;;;;;;;;;;;;;;12922596;23;20333;-84
2022/01/15 12:00:44;;;;;;;7.00;4.05;;;;;;;;;;12925004;22;19900;-84
2022/01/15 12:05:46;;;;;;;6.45;4.28;;;;;;;;;;12926137;23;20008;-81
2022/01/15 12:10:51;;;;;;;10.68;8.20;;;;;;;;;;12925012;22;20028;-84
2022/01/15 12:16:11;;;;;;;14.45;10.95;;;;;;;;;;12933614;23;20001;-82
2022/01/15 12:21:32;;;;;;;6.60;3.95;;;;;;;;;;12929309;22;20313;-82
2022/01/15 12:26:33;;;;;;;7.05;5.22;;;;;;;;;;12928016;23;20336;-81
2022/01/15 12:31:35;;;;;;;6.13;4.38;;;;;;;;;;12924859;22;20000;-82
2022/01/15 12:36:36;;;;;;;;;;;;;;;;;;12924709;23;20008;-81
2022/01/15 12:42:00;;;;;;;7.20;5.20;;;;;;;;;;12931686;22;19899;-82
2022/01/15 12:47:01;;;;;;;12.75;9.32;;;;;;;;;;12933068;23;19993;-82
2022/01/15 12:52:13;;;;;;;6.70;3.70;;;;;;;;;;12925244;22;20082;-81
2022/01/15 12:57:15;;;;;;;6.72;5.07;;;;;;;;;;12914967;23;20010;-81
2022/01/15 13:02:17;;;;;;;14.30;10.55;;;;;;;;;;12931449;22;20004;-81
2022/01/15 13:07:18;;;;;;;7.38;5.88;;;;;;;;;;12935697;23;20008;-82
2022/01/15 13:12:19;;;;;;;;;;;;;;;;;;12936130;22;20000;-81
2022/01/15 13:17:21;;;;;;;11.00;8.98;;;;;;;;;;12935107;23;19948;-83
2022/01/15 13:22:23;;;;;;;18.00;14.88;;;;;;;;;;12943636;22;19996;-82
2022/01/15 13:27:25;;;;;;;12.55;9.23;;;;;;;;;;12928053;23;20000;-83
2022/01/15 13:32:37;;;;;;;12.70;10.50;;;;;;;;;;12925818;22;20000;-83
2022/01/15 13:37:49;;;;;;;9.82;7.13;;;;;;;;;;12926676;23;20012;-83
2022/01/15 13:42:50;;;;;;;8.00;6.38;;;;;;;;;;12961014;22;20031;-83
2022/01/15 13:47:52;;;;;;;10.48;8.75;;;;;;;;;;12949066;22;20023;-81
2022/01/15 13:53:06;;;;;;;27.77;21.15;;;;;;;;;;12945262;22;20038;-83
2022/01/15 13:58:13;;;;;;;11.38;7.93;;;;;;;;;;12929456;23;20039;-83
2022/01/15 14:03:17;;;;;;;13.93;10.65;;;;;;;;;;12938847;22;20008;-82
2022/01/15 14:08:24;;;;;;;10.85;8.70;;;;;;;;;;12945918;23;20008;-82
2022/01/15 14:13:30;;;;;;;9.32;7.50;;;;;;;;;;12945920;23;20005;-82
2022/01/15 14:18:59;;;;;;;8.32;6.80;;;;;;;;;;12945836;23;20004;-82
2022/01/15 14:24:26;;;;;;;8.47;7.20;;;;;;;;;;12974256;22;19984;-82
2022/01/15 14:29:37;;;;;;;8.57;6.95;;;;;;;;;;12943791;23;20015;-83
2022/01/15 14:56:33;;;;;;;10.05;7.25;;;;;;;;;;12931898;22;20019;-80
2022/01/15 15:01:35;;;;;;;7.72;6.38;;;;;;;;;;12925485;22;20000;-78
2022/01/15 15:06:41;;;;;;;9.25;7.32;;;;;;;;;;12926274;23;20333;-78
2022/01/15 15:11:46;;;;;;;7.05;6.07;;;;;;;;;;12925928;22;19997;-78
2022/01/15 15:16:47;;;;;;;8.05;6.30;;;;;;;;;;12922784;23;20007;-78
2022/01/15 15:22:20;;;;;;;7.85;6.50;;;;;;;;;;12951910;22;20008;-80
2022/01/15 15:27:49;;;;;;;;;;;;;;;;;;;;;
2022/01/15 15:50:20;;;;;;;6.00;4.70;;;;;;;;;;12830001;23;20023;-80
2022/01/15 16:12:33;;;;;;;5.60;4.57;;;;;;;;;;12799104;22;20020;-78
2022/01/15 16:18:08;;;;;;;;;;;;;;;;;;;;;
2022/01/15 16:23:09;;;;;;;7.47;6.03;;;;;;;;;;12933422;22;20050;-80
2022/01/15 16:28:10;;;;;;;;;;;;;;;;;;12932157;23;20004;-80
2022/01/15 16:33:16;;;;;;;6.85;5.57;;;;;;;;;;12925676;22;19899;-80
2022/01/15 16:38:20;;;;;;;7.70;6.32;;;;;;;;;;12929118;23;20035;-80
2022/01/15 16:43:21;;;;;;;7.28;5.38;;;;;;;;;;12929274;23;20007;-80
2022/01/15 16:48:22;;;;;;;;;;;;;;;;;;12928702;23;20011;-80
2022/01/15 16:53:25;;;;;;;7.30;5.50;;;;;;;;;;12928244;23;19922;-80
2022/01/15 16:58:26;;;;;;;9.07;7.18;;;;;;;;;;12928008;23;20086;-80
2022/01/15 17:03:46;;;;;;;8.05;6.15;;;;;;;;;;12902677;23;20016;-80
2022/01/15 17:08:47;;;;;;;7.25;5.95;;;;;;;;;;12928779;23;20004;-80
2022/01/15 17:13:47;;;;;;;;;;;;;;;;;;12933133;23;20003;-81
2022/01/15 17:18:51;;;;;;;13.77;10.52;;;;;;;;;;12945794;23;20316;-81
2022/01/15 17:23:52;;;;;;;12.25;8.35;;;;;;;;;;12938174;23;20047;-81
2022/01/15 17:28:53;;;;;;;;;;;;;;;;;;12921497;23;20008;-80
2022/01/15 17:33:54;;;;;;;;;;;;;;;;;;12920940;23;19899;-81
2022/01/15 17:38:56;;;;;;;9.00;6.88;;;;;;;;;;12920814;23;19974;-81
2022/01/15 17:43:57;;;;;;;10.43;7.10;;;;;;;;;;12915884;23;20004;-81
2022/01/15 17:48:58;;;;;;;8.35;6.38;;;;;;;;;;12940273;23;20004;-81
2022/01/15 17:53:59;;;;;;;;;;;;;;;;;;12914013;23;20003;-81
2022/01/15 17:59:00;;;;;;;10.30;8.27;;;;;;;;;;12939699;23;19945;-81
2022/01/15 18:04:01;;;;;;;;;;;;;;;;;;12913634;23;20080;-82
2022/01/15 18:09:02;;;;;;;8.63;6.85;;;;;;;;;;12914970;23;19946;-81
2022/01/15 18:14:03;;;;;;;;;;;;;;;;;;12914012;23;20000;-81
2022/01/15 18:19:04;;;;;;;9.82;7.57;;;;;;;;;;12912555;23;20283;-82
2022/01/15 18:24:05;;;;;;;17.67;13.20;;;;;;;;;;12916230;23;20012;-80
2022/01/15 18:29:06;;;;;;;12.25;8.15;;;;;;;;;;12908950;23;20031;-79
2022/01/15 18:34:07;;;;;;;9.73;7.93;;;;;;;;;;12908065;23;20058;-80
2022/01/15 18:39:08;;;;;;;;;;;;;;;;;;12910032;23;20032;-80
2022/01/15 18:44:09;;;;;;;12.02;9.02;;;;;;;;;;12908737;23;19946;-80
2022/01/15 18:49:10;;;;;;;8.50;6.55;;;;;;;;;;12909881;23;20440;-82
2022/01/15 18:54:11;;;;;;;;;;;;;;;;;;12936535;22;20079;-81
2022/01/15 19:05:25;;;;;;;13.48;10.90;;;;;;;;;;12964389;22;20012;-79
2022/01/15 19:11:05;;;;;;;11.23;8.82;;;;;;;;;;12935778;22;20032;-80
2022/01/15 19:17:08;;;;;;;11.98;9.88;;;;;;;;;;12931855;23;20008;-79
2022/01/15 19:27:54;;;;;;;10.48;8.70;;;;;;;;;;12831150;23;20025;-81
2022/01/15 19:38:42;;;;;;;11.48;8.65;;;;;;;;;;12641386;23;20006;-80
2022/01/15 19:43:43;;;;;;;11.80;10.07;;;;;;;;;;12622061;23;20074;-80
2022/01/15 19:48:44;;;;;;;;;;;;;;;;;;12649013;23;20021;-82
2022/01/15 19:54:17;;;;;;;19.58;15.27;;;;;;;;;;12679312;23;19900;-80
2022/01/15 19:59:39;;;;;;;19.30;14.93;;;;;;;;;;12687549;23;20018;-80
2022/01/15 20:05:20;;;;;;;15.35;11.40;;;;;;;;;;12691519;23;20118;-81
2022/01/15 20:10:38;;;;;;;10.30;7.70;;;;;;;;;;12912744;22;20020;-79
2022/01/15 20:15:47;;;;;;;11.38;8.63;;;;;;;;;;12941733;23;20012;-78
2022/01/15 20:21:27;;;;;;;8.95;7.15;;;;;;;;;;12964696;22;20012;-80
2022/01/15 20:26:36;;;;;;;8.30;6.93;;;;;;;;;;12934405;23;20018;-80
2022/01/15 20:48:55;;;;;;;10.57;8.85;;;;;;;;;;12695877;23;20014;-83
2022/01/15 20:54:18;;;;;;;8.57;6.90;;;;;;;;;;12921120;22;20008;-83
2022/01/15 20:59:44;;;;;;;9.27;7.40;;;;;;;;;;12925760;23;20004;-82
2022/01/15 21:05:00;;;;;;;10.07;8.32;;;;;;;;;;12924176;23;20015;-84
